Anderson Dam, Idaho
Current Conditions -  °F | °C
As of 3:58 PM on Saturday 25 Oct 2014 (Local Time) from KMUO Reporting Station
Few Clouds Few Clouds  
Wind Chill: 77°   Ceiling: Unl
Heat Index: 77°   Visibility: 10mi
Dew Point: 34°   Wind: 9mph
Humidity: 21%   Direction: 170°S
Pressure: 29.76"   Gusts: NA
Location:  43.2609°N, 115.781°W
Report Text: KMUO 252158Z AUTO 17008KT 10SM FEW140 25/01 A2976 RMK AO2 SLP064 T02520012
Loading
Personal Weather Stations






























Interactive Weather Map New forecast layout! Learn more

10-Day Weather Forecast

Advertisements
Track Severe Weather on mobile